Strona główna
METAR-TAF:

METAR-TAF

Lotnisko :

Entrammes

Laval, Francja

Szerokość geograficzna: 48-01-56N, Długość geograficzna: 000-44-34W, wysokość: 101 m

Aktualna obserwacja pogody

Raport powstał 33 minut temu, godzina 05:30 UTC
Wiatr 14 kt od zachód
Temperatura 3°C
Wilgotność 87%
Ciśnienie 1008 hPa
Widzialność 10 km lub więcej
deszcz

METAR: LFOV 260530Z AUTO 28014KT 9999 RA SCT025/// BKN036/// BKN060/// ///TCU 03/01 Q1008

czas: 07:03 (06:03 UTC)


TAF: brakujący

Obserwacja i prognoza pogody dla ponad 4000 lotnisk (raport METAR i TAF).

Dostępne stacje oznaczono żółtymi i czerwonymi punktami na mapie.

Najedź kursorem aby zobaczyć nazwę stacji.

Kliknij aby zobaczyć obserwacje i prognozy pogody.

Aby zmienić mapę: kliknij na zielony przycisk z czarnym krzyżykiem, aby powiększyć; na zielony przycisk z myślnikiem, aby pomniejszyć; na zielone strzałki, aby przejść do map sąsiednich.


METAR-TAF: